createdAt,value
2022-07-28T00:01:58.955Z,99182.25
2022-07-28T00:04:01.768Z,99187.00
2022-07-28T00:06:04.693Z,99185.78
2022-07-28T00:08:07.924Z,99184.16
2022-07-28T00:10:11.126Z,99194.47
2022-07-28T00:12:13.701Z,99177.75
2022-07-28T00:14:16.570Z,99180.91
2022-07-28T00:16:19.410Z,99188.03
2022-07-28T00:18:22.022Z,99185.66
2022-07-28T00:20:25.505Z,99193.59
2022-07-28T00:22:28.014Z,99191.66
2022-07-28T00:24:31.991Z,99192.00
2022-07-28T00:26:34.955Z,99188.44
2022-07-28T00:28:37.671Z,99181.66
2022-07-28T00:30:40.310Z,99176.81
2022-07-28T00:32:42.893Z,99185.56
2022-07-28T00:34:45.496Z,99185.94
2022-07-28T00:36:48.167Z,99193.06
2022-07-28T00:38:51.664Z,99194.19
2022-07-28T00:41:14.155Z,99189.41
2022-07-28T00:43:16.797Z,99184.19
2022-07-28T00:45:19.299Z,99186.94
2022-07-28T00:47:21.847Z,99194.03
2022-07-28T00:49:25.022Z,99189.25
2022-07-28T00:51:28.184Z,99190.44
2022-07-28T00:53:31.003Z,99194.38
2022-07-28T00:55:34.130Z,99197.16
2022-07-28T00:57:56.693Z,99193.16
2022-07-28T00:59:59.305Z,99194.34
2022-07-28T01:02:03.325Z,99188.03
2022-07-28T01:04:06.476Z,99189.59
2022-07-28T01:06:21.279Z,99193.22
2022-07-28T01:08:39.004Z,99195.16
2022-07-28T01:10:48.458Z,99186.81
2022-07-28T01:13:11.857Z,99194.78
2022-07-28T01:15:17.433Z,99197.94
2022-07-28T01:17:54.870Z,99191.22
2022-07-28T01:20:07.714Z,99188.38
2022-07-28T01:22:12.967Z,99190.38
2022-07-28T01:24:49.004Z,99194.38
2022-07-28T01:26:54.869Z,99201.13
2022-07-28T01:29:00.176Z,99207.88
2022-07-28T01:31:08.538Z,99195.56
2022-07-28T01:33:21.855Z,99201.91
2022-07-28T01:35:29.248Z,99198.69
2022-07-28T01:37:33.013Z,99195.56
2022-07-28T01:39:40.084Z,99191.16
2022-07-28T01:41:44.262Z,99195.91
2022-07-28T01:43:51.802Z,99193.94
2022-07-28T01:45:57.146Z,99188.44
2022-07-28T01:48:02.363Z,99204.34
2022-07-28T01:50:08.670Z,99204.78
2022-07-28T01:52:11.288Z,99202.06
2022-07-28T01:54:15.888Z,99206.06
2022-07-28T01:56:21.842Z,99206.88
2022-07-28T01:58:26.924Z,99206.53
2022-07-28T02:00:29.920Z,99197.44
2022-07-28T02:02:34.783Z,99205.44
2022-07-28T02:04:40.689Z,99199.91
2022-07-28T02:06:44.947Z,99206.28
2022-07-28T02:08:49.518Z,99206.69
2022-07-28T02:11:15.443Z,99208.72
2022-07-28T02:13:18.156Z,99207.59
2022-07-28T02:15:22.389Z,99208.38
2022-07-28T02:17:29.804Z,99212.34
2022-07-28T02:19:33.175Z,99208.00
2022-07-28T02:21:37.133Z,99206.41
2022-07-28T02:23:41.571Z,99207.22
2022-07-28T02:25:44.446Z,99214.72
2022-07-28T02:27:57.432Z,99201.66
2022-07-28T02:30:06.190Z,99220.72
2022-07-28T02:32:27.511Z,99209.56
2022-07-28T02:34:32.147Z,99211.59
2022-07-28T02:36:41.386Z,99215.56
2022-07-28T02:38:47.023Z,99209.22
2022-07-28T02:40:53.783Z,99213.59
2022-07-28T02:42:59.047Z,99212.88
2022-07-28T02:45:05.469Z,99214.81
2022-07-28T02:47:10.773Z,99217.22
2022-07-28T02:49:21.448Z,99207.75
2022-07-28T02:51:28.806Z,99210.97
2022-07-28T02:53:32.001Z,99206.25
2022-07-28T02:55:36.585Z,99211.00
2022-07-28T02:57:41.685Z,99212.19
2022-07-28T02:59:45.021Z,99208.25
2022-07-28T03:01:49.068Z,99215.03
2022-07-28T03:03:55.382Z,99215.03
2022-07-28T03:05:58.356Z,99215.47
2022-07-28T03:08:01.128Z,99220.25
2022-07-28T03:10:04.910Z,99217.56
2022-07-28T03:12:08.855Z,99216.38
2022-07-28T03:14:11.583Z,99217.59
2022-07-28T03:16:14.584Z,99218.41
2022-07-28T03:18:17.143Z,99221.63
2022-07-28T03:20:19.750Z,99215.34
2022-07-28T03:22:22.308Z,99225.34
2022-07-28T03:24:28.619Z,99218.25
2022-07-28T03:26:41.363Z,99215.91
2022-07-28T03:28:46.437Z,99227.09
2022-07-28T03:30:56.151Z,99225.16
2022-07-28T03:33:01.239Z,99229.94
2022-07-28T03:35:05.578Z,99227.22
2022-07-28T03:37:15.952Z,99229.22
2022-07-28T03:39:18.963Z,99231.63
2022-07-28T03:41:23.244Z,99235.28
2022-07-28T03:43:27.772Z,99228.16
2022-07-28T03:45:30.901Z,99243.28
2022-07-28T03:47:33.452Z,99233.38
2022-07-28T03:49:36.003Z,99232.63
2022-07-28T03:51:38.602Z,99247.34
2022-07-28T03:53:42.049Z,99245.41
2022-07-28T03:55:46.611Z,99242.69
2022-07-28T03:57:49.204Z,99244.31
2022-07-28T03:59:51.774Z,99248.34
2022-07-28T04:01:56.605Z,99255.91
2022-07-28T04:04:00.813Z,99252.00
2022-07-28T04:06:03.393Z,99258.00
2022-07-28T04:08:06.414Z,99256.81
2022-07-28T04:10:11.551Z,99262.41
2022-07-28T04:12:14.093Z,99262.84
2022-07-28T04:14:18.379Z,99264.88
2022-07-28T04:16:22.330Z,99264.09
2022-07-28T04:18:25.046Z,99272.44
2022-07-28T04:20:28.345Z,99268.53
2022-07-28T04:22:31.223Z,99266.19
2022-07-28T04:24:33.872Z,99268.59
2022-07-28T04:26:36.624Z,99276.22
2022-07-28T04:28:39.169Z,99279.88
2022-07-28T04:30:44.299Z,99279.91
2022-07-28T04:32:49.474Z,99277.94
2022-07-28T04:34:51.985Z,99275.16
2022-07-28T04:36:55.672Z,99279.97
2022-07-28T04:38:59.562Z,99277.22
2022-07-28T04:41:02.277Z,99279.25
2022-07-28T04:43:04.875Z,99285.25
2022-07-28T04:45:09.387Z,99277.28
2022-07-28T04:47:15.475Z,99277.28
2022-07-28T04:49:18.063Z,99278.88
2022-07-28T04:51:21.750Z,99281.72
2022-07-28T04:53:24.507Z,99288.91
2022-07-28T04:55:27.154Z,99282.53
2022-07-28T04:57:31.182Z,99280.19
2022-07-28T04:59:35.836Z,99281.78
2022-07-28T05:01:39.430Z,99284.16
2022-07-28T05:03:42.080Z,99284.59
2022-07-28T05:05:44.626Z,99288.97
2022-07-28T05:07:51.849Z,99292.19
2022-07-28T05:09:54.417Z,99288.56
2022-07-28T05:11:57.068Z,99281.81
2022-07-28T05:13:59.663Z,99289.78
2022-07-28T05:16:02.886Z,99285.78
2022-07-28T05:18:05.819Z,99288.56
2022-07-28T05:20:08.990Z,99288.97
2022-07-28T05:22:11.498Z,99285.78
2022-07-28T05:24:14.770Z,99284.59
2022-07-28T05:26:17.674Z,99285.00
2022-07-28T05:28:20.159Z,99288.56
2022-07-28T05:30:22.800Z,99290.56
2022-07-28T05:32:25.388Z,99294.56
2022-07-28T05:34:27.955Z,99289.75
2022-07-28T05:36:30.479Z,99287.34
2022-07-28T05:38:33.546Z,99280.94
2022-07-28T05:40:36.143Z,99288.91
2022-07-28T05:42:40.169Z,99289.31
2022-07-28T05:44:42.712Z,99293.69
2022-07-28T05:46:45.242Z,99292.03
2022-07-28T05:48:47.905Z,99294.03
2022-07-28T05:50:51.475Z,99286.81
2022-07-28T05:52:54.008Z,99289.19
2022-07-28T05:54:56.732Z,99291.19
2022-07-28T05:56:59.270Z,99291.59
2022-07-28T05:59:01.810Z,99289.53
2022-07-28T06:01:04.838Z,99293.94
2022-07-28T06:03:07.749Z,99293.13
2022-07-28T06:05:10.463Z,99289.13
2022-07-28T06:07:13.119Z,99289.50
2022-07-28T06:09:15.635Z,99297.06
2022-07-28T06:11:22.719Z,99293.84
2022-07-28T06:13:25.903Z,99295.81
2022-07-28T06:15:28.535Z,99293.75
2022-07-28T06:17:31.168Z,99294.09
2022-07-28T06:19:33.705Z,99290.91
2022-07-28T06:21:36.428Z,99292.03
2022-07-28T06:23:38.964Z,99296.78
2022-07-28T06:25:41.515Z,99298.03
2022-07-28T06:27:46.614Z,99300.03
2022-07-28T06:29:49.207Z,99294.75
2022-07-28T06:31:51.928Z,99294.72
2022-07-28T06:33:54.557Z,99285.91
2022-07-28T06:35:57.506Z,99291.03
2022-07-28T06:38:00.258Z,99291.78
2022-07-28T06:40:05.361Z,99290.53
2022-07-28T06:42:07.903Z,99290.06
2022-07-28T06:44:12.461Z,99289.22
2022-07-28T06:46:18.910Z,99286.72
2022-07-28T06:48:23.580Z,99288.25
2022-07-28T06:50:27.350Z,99286.97
2022-07-28T06:52:30.321Z,99290.16
2022-07-28T06:54:32.936Z,99289.34
2022-07-28T06:56:35.820Z,99296.19
2022-07-28T06:58:38.595Z,99276.91
2022-07-28T07:00:41.384Z,99290.44
2022-07-28T07:02:44.300Z,99282.38
2022-07-28T07:04:47.420Z,99289.91
2022-07-28T07:06:50.035Z,99285.03
2022-07-28T07:08:52.633Z,99282.66
2022-07-28T07:10:55.439Z,99293.47
2022-07-28T07:12:58.152Z,99287.44
2022-07-28T07:15:01.190Z,99284.94
2022-07-28T07:17:06.895Z,99288.84
2022-07-28T07:19:13.946Z,99291.19
2022-07-28T07:21:18.315Z,99281.50
2022-07-28T07:23:21.301Z,99283.88
2022-07-28T07:25:24.205Z,99285.03
2022-07-28T07:27:26.738Z,99281.38
2022-07-28T07:29:30.259Z,99288.53
2022-07-28T07:31:34.333Z,99283.63
2022-07-28T07:33:36.997Z,99281.16
2022-07-28T07:35:39.713Z,99279.31
2022-07-28T07:37:42.492Z,99275.91
2022-07-28T07:39:45.003Z,99283.44
2022-07-28T07:41:47.638Z,99290.59
2022-07-28T07:43:50.251Z,99284.59
2022-07-28T07:45:53.264Z,99286.13
2022-07-28T07:47:55.843Z,99277.34
2022-07-28T07:49:58.510Z,99283.63
2022-07-28T07:52:01.164Z,99278.72
2022-07-28T07:54:04.124Z,99286.19
2022-07-28T07:56:07.063Z,99284.16
2022-07-28T07:58:09.724Z,99262.91
2022-07-28T08:00:28.856Z,99264.69
2022-07-28T08:02:32.328Z,99266.88
2022-07-28T08:04:37.492Z,99278.28
2022-07-28T08:06:41.358Z,99277.06
2022-07-28T08:08:48.501Z,99280.31
2022-07-28T08:10:51.460Z,99275.59
2022-07-28T08:12:54.105Z,99279.81
2022-07-28T08:14:57.004Z,99283.00
2022-07-28T08:16:59.792Z,99283.78
2022-07-28T08:19:02.700Z,99290.22
2022-07-28T08:21:05.853Z,99275.81
2022-07-28T08:23:09.024Z,99282.09
2022-07-28T08:25:12.058Z,99275.53
2022-07-28T08:27:14.723Z,99281.31
2022-07-28T08:29:17.304Z,99284.41
2022-07-28T08:31:22.172Z,99285.91
2022-07-28T08:33:24.913Z,99286.81
2022-07-28T08:35:35.868Z,99281.38
2022-07-28T08:37:40.092Z,99278.81
2022-07-28T08:39:42.833Z,99269.19
2022-07-28T08:42:02.290Z,99277.50
2022-07-28T08:44:07.985Z,99270.25
2022-07-28T08:46:11.523Z,99276.13
2022-07-28T08:48:15.011Z,99276.97
2022-07-28T08:50:24.451Z,99277.06
2022-07-28T08:52:31.950Z,99274.16
2022-07-28T08:54:34.814Z,99269.59
2022-07-28T08:56:48.149Z,99267.34
2022-07-28T08:58:50.930Z,99261.16
2022-07-28T09:00:53.511Z,99262.66
2022-07-28T09:02:56.895Z,99266.25
2022-07-28T09:05:00.254Z,99273.34
2022-07-28T09:07:04.233Z,99267.13
2022-07-28T09:09:09.801Z,99274.56
2022-07-28T09:11:12.568Z,99264.13
2022-07-28T09:13:16.764Z,99257.31
2022-07-28T09:15:19.473Z,99265.25
2022-07-28T09:17:22.769Z,99271.16
2022-07-28T09:19:25.632Z,99266.09
2022-07-28T09:21:37.788Z,99256.06
2022-07-28T09:23:48.843Z,99267.59
2022-07-28T09:25:51.852Z,99258.88
2022-07-28T09:27:55.544Z,99273.09
2022-07-28T09:30:01.457Z,99269.53
2022-07-28T09:32:08.793Z,99272.75
2022-07-28T09:34:11.701Z,99275.44
2022-07-28T09:36:16.769Z,99272.84
2022-07-28T09:38:22.299Z,99262.81
2022-07-28T09:40:25.305Z,99273.88
2022-07-28T09:42:46.642Z,99278.19
2022-07-28T09:45:22.521Z,99272.63
2022-07-28T09:47:31.343Z,99277.31
2022-07-28T09:49:43.002Z,99275.53
2022-07-28T09:52:07.259Z,99277.34
2022-07-28T09:54:19.917Z,99281.63
2022-07-28T09:56:25.169Z,99286.00
2022-07-28T09:58:32.208Z,99283.91
2022-07-28T10:00:35.444Z,99284.16
2022-07-28T10:02:39.286Z,99294.31
2022-07-28T10:04:42.482Z,99289.41
2022-07-28T10:06:45.088Z,99287.63
2022-07-28T10:08:50.430Z,99281.53
2022-07-28T10:11:00.291Z,99287.25
2022-07-28T10:13:06.744Z,99282.06
2022-07-28T10:15:33.731Z,99285.09
2022-07-28T10:17:36.308Z,99278.28
2022-07-28T10:19:40.684Z,99280.72
2022-07-28T10:21:45.781Z,99274.88
2022-07-28T10:23:51.674Z,99277.09
2022-07-28T10:25:56.876Z,99271.25
2022-07-28T10:28:01.756Z,99279.38
2022-07-28T10:30:05.766Z,99279.94
2022-07-28T10:32:08.468Z,99280.28
2022-07-28T10:34:20.542Z,99280.97
2022-07-28T10:36:28.662Z,99270.75
2022-07-28T10:38:36.379Z,99280.66
2022-07-28T10:40:45.922Z,99271.91
2022-07-28T10:42:48.499Z,99281.88
2022-07-28T10:44:54.006Z,99280.06
2022-07-28T10:46:58.139Z,99280.88
2022-07-28T10:49:03.711Z,99267.72
2022-07-28T10:51:06.780Z,99279.72
2022-07-28T10:53:14.736Z,99284.47
2022-07-28T10:55:35.932Z,99288.09
2022-07-28T10:58:02.092Z,99287.00
2022-07-28T11:00:25.735Z,99273.06
2022-07-28T11:02:47.331Z,99268.75
2022-07-28T11:04:52.817Z,99279.84
2022-07-28T11:07:10.925Z,99276.56
2022-07-28T11:09:22.474Z,99273.03
2022-07-28T11:11:47.194Z,99272.00
2022-07-28T11:13:50.371Z,99277.91
2022-07-28T11:15:56.088Z,99265.53
2022-07-28T11:17:59.754Z,99269.78
2022-07-28T11:22:29.239Z,99265.94
2022-07-28T11:24:58.722Z,99272.03
2022-07-28T11:27:04.160Z,99272.41
2022-07-28T11:29:08.329Z,99270.06
2022-07-28T11:31:11.113Z,99260.66
2022-07-28T11:33:14.252Z,99264.00
2022-07-28T11:35:18.552Z,99278.78
2022-07-28T11:37:21.096Z,99280.44
2022-07-28T11:39:28.216Z,99280.38
2022-07-28T11:41:30.810Z,99276.78
2022-07-28T11:43:37.915Z,99275.22
2022-07-28T11:45:47.282Z,99262.72
2022-07-28T11:48:16.545Z,99263.72
2022-07-28T11:50:19.149Z,99267.81
2022-07-28T11:52:22.629Z,99263.00
2022-07-28T11:54:25.890Z,99266.47
2022-07-28T11:56:31.930Z,99260.53
2022-07-28T11:58:35.291Z,99261.00
2022-07-28T12:00:37.855Z,99264.63
2022-07-28T12:02:41.248Z,99259.41
2022-07-28T12:04:44.302Z,99260.34
2022-07-28T12:06:51.091Z,99253.28
2022-07-28T12:08:58.910Z,99264.34
2022-07-28T12:11:01.724Z,99249.50
2022-07-28T12:13:07.526Z,99248.53
2022-07-28T12:15:15.750Z,99265.56
2022-07-28T12:17:18.406Z,99258.84
2022-07-28T12:19:23.769Z,99258.25
2022-07-28T12:21:47.666Z,99252.91
2022-07-28T12:23:54.484Z,99250.34
2022-07-28T12:25:57.238Z,99258.66
2022-07-28T12:28:14.007Z,99251.47
2022-07-28T12:30:28.486Z,99252.88
2022-07-28T12:32:35.763Z,99253.63
2022-07-28T12:34:40.775Z,99252.25
2022-07-28T12:36:43.495Z,99250.03
2022-07-28T12:38:46.488Z,99251.94
2022-07-28T12:40:49.300Z,99249.50
2022-07-28T12:42:54.115Z,99239.94
2022-07-28T12:45:03.685Z,99238.94
2022-07-28T12:47:09.206Z,99244.66
2022-07-28T12:49:21.880Z,99234.53
2022-07-28T12:51:34.931Z,99230.00
2022-07-28T12:53:51.476Z,99232.56
2022-07-28T12:56:01.917Z,99229.78
2022-07-28T12:58:06.315Z,99230.69
2022-07-28T13:00:09.432Z,99230.81
2022-07-28T13:02:12.254Z,99230.47
2022-07-28T13:04:15.720Z,99231.19
2022-07-28T13:06:18.490Z,99232.56
2022-07-28T13:08:25.338Z,99227.63
2022-07-28T13:10:31.231Z,99224.97
2022-07-28T13:12:35.365Z,99222.59
2022-07-28T13:14:42.655Z,99232.31
2022-07-28T13:16:57.828Z,99229.31
2022-07-28T13:19:05.170Z,99238.69
2022-07-28T13:21:07.904Z,99229.84
2022-07-28T13:23:10.485Z,99218.81
2022-07-28T13:25:14.646Z,99219.81
2022-07-28T13:27:17.228Z,99212.25
2022-07-28T13:29:21.974Z,99224.09
2022-07-28T13:31:24.609Z,99228.44
2022-07-28T13:33:27.386Z,99226.00
2022-07-28T13:35:31.218Z,99221.16
2022-07-28T13:37:33.877Z,99222.53
2022-07-28T13:39:36.698Z,99226.47
2022-07-28T13:41:56.272Z,99216.53
2022-07-28T13:44:00.861Z,99224.38
2022-07-28T13:46:03.806Z,99214.25
2022-07-28T13:48:07.749Z,99216.22
2022-07-28T13:50:11.151Z,99208.19
2022-07-28T13:52:32.503Z,99221.53
2022-07-28T13:54:37.598Z,99212.88
2022-07-28T13:56:43.929Z,99219.59
2022-07-28T13:58:46.641Z,99217.53
2022-07-28T14:00:51.533Z,99218.88
2022-07-28T14:02:54.306Z,99211.84
2022-07-28T14:04:57.381Z,99218.66
2022-07-28T14:06:59.922Z,99212.13
2022-07-28T14:09:04.219Z,99215.97
2022-07-28T14:11:07.176Z,99220.59
2022-07-28T14:13:10.520Z,99216.25
2022-07-28T14:15:13.928Z,99204.03
2022-07-28T14:19:45.505Z,99204.44
2022-07-28T14:21:51.230Z,99200.56
2022-07-28T14:23:53.855Z,99196.69
2022-07-28T14:26:12.387Z,99196.13
2022-07-28T14:28:19.141Z,99197.53
2022-07-28T14:30:26.106Z,99199.44
2022-07-28T14:32:28.962Z,99193.22
2022-07-28T14:34:31.567Z,99189.44
2022-07-28T14:36:37.321Z,99200.31
2022-07-28T14:38:52.955Z,99192.28
2022-07-28T14:40:56.760Z,99184.75
2022-07-28T14:42:59.341Z,99195.94
2022-07-28T14:45:05.976Z,99188.16
2022-07-28T14:47:08.821Z,99191.25
2022-07-28T14:49:11.589Z,99185.06
2022-07-28T14:51:14.367Z,99193.22
2022-07-28T14:53:17.453Z,99198.94
2022-07-28T14:55:20.106Z,99197.16
2022-07-28T14:57:45.891Z,99200.69
2022-07-28T14:59:46.307Z,99187.91
2022-07-28T15:01:50.335Z,99195.69
2022-07-28T15:03:53.082Z,99200.34
2022-07-28T15:05:55.625Z,99195.34
2022-07-28T15:07:58.462Z,99194.00
2022-07-28T15:10:01.770Z,99194.31
2022-07-28T15:12:06.774Z,99193.72
2022-07-28T15:14:09.382Z,99195.00
2022-07-28T15:16:12.042Z,99193.56
2022-07-28T15:18:14.597Z,99192.56
2022-07-28T15:20:17.235Z,99193.47
2022-07-28T15:22:19.830Z,99188.81
2022-07-28T15:24:30.762Z,99180.03
2022-07-28T15:26:33.377Z,99179.34
2022-07-28T15:28:36.143Z,99181.19
2022-07-28T15:30:41.409Z,99176.22
2022-07-28T15:32:57.084Z,99176.84
2022-07-28T15:35:00.128Z,99177.31
2022-07-28T15:37:03.471Z,99179.03
2022-07-28T15:39:09.494Z,99188.38
2022-07-28T15:41:13.081Z,99186.34
2022-07-28T15:43:15.675Z,99196.78
2022-07-28T15:45:18.396Z,99199.97
2022-07-28T15:47:20.956Z,99197.72
2022-07-28T15:49:25.489Z,99181.81
2022-07-28T15:51:29.364Z,99202.06
2022-07-28T15:53:32.284Z,99199.28
2022-07-28T15:55:34.903Z,99192.03
2022-07-28T15:57:38.325Z,99193.47
2022-07-28T15:59:50.084Z,99193.78
2022-07-28T16:01:53.555Z,99173.28
2022-07-28T16:03:58.577Z,99194.72
2022-07-28T16:06:01.336Z,99191.38
2022-07-28T16:08:05.518Z,99191.75
2022-07-28T16:10:08.509Z,99194.50
2022-07-28T16:12:12.866Z,99196.19
2022-07-28T16:14:17.973Z,99198.88
2022-07-28T16:16:20.865Z,99197.56
2022-07-28T16:18:23.481Z,99202.09
2022-07-28T16:20:26.136Z,99203.44
2022-07-28T16:22:28.732Z,99205.00
2022-07-28T16:24:31.711Z,99198.81
2022-07-28T16:26:34.377Z,99201.63
2022-07-28T16:28:37.064Z,99199.16
2022-07-28T16:30:39.727Z,99207.19
2022-07-28T16:32:42.852Z,99206.66
2022-07-28T16:34:45.967Z,99199.88
2022-07-28T16:36:48.796Z,99213.06
2022-07-28T16:38:51.367Z,99204.81
2022-07-28T16:40:54.004Z,99211.00
2022-07-28T16:43:00.174Z,99218.88
2022-07-28T16:45:04.527Z,99226.44
2022-07-28T16:47:07.362Z,99228.38
2022-07-28T16:49:10.135Z,99227.38
2022-07-28T16:51:12.837Z,99237.44
2022-07-28T16:53:16.496Z,99231.28
2022-07-28T16:55:23.466Z,99223.13
2022-07-28T16:57:26.311Z,99234.25
2022-07-28T16:59:37.727Z,99241.53
2022-07-28T17:01:52.352Z,99234.13
2022-07-28T17:03:55.091Z,99221.97
2022-07-28T17:05:58.859Z,99231.22
2022-07-28T17:08:01.567Z,99231.81
2022-07-28T17:10:04.795Z,99236.75
2022-07-28T17:12:08.446Z,99238.16
2022-07-28T17:14:13.018Z,99244.81
2022-07-28T17:16:15.969Z,99241.50
2022-07-28T17:18:18.962Z,99244.09
2022-07-28T17:20:23.220Z,99248.59
2022-07-28T17:22:26.205Z,99249.03
2022-07-28T17:24:29.180Z,99246.81
2022-07-28T17:28:55.398Z,99251.94
2022-07-28T17:30:59.425Z,99252.94
2022-07-28T17:33:08.423Z,99247.50
2022-07-28T17:35:34.219Z,99250.44
2022-07-28T17:37:34.585Z,99244.88
2022-07-28T17:39:37.400Z,99245.44
2022-07-28T17:41:40.286Z,99250.00
2022-07-28T17:43:45.631Z,99248.16
2022-07-28T17:45:49.874Z,99242.66
2022-07-28T17:47:52.744Z,99245.59
2022-07-28T17:49:55.434Z,99248.91
2022-07-28T17:51:58.235Z,99244.53
2022-07-28T17:54:01.132Z,99242.63
2022-07-28T17:56:04.320Z,99244.66
2022-07-28T17:58:29.538Z,99241.59
2022-07-28T18:00:32.533Z,99244.50
2022-07-28T18:02:35.711Z,99244.63
2022-07-28T18:04:38.716Z,99245.97
2022-07-28T18:06:41.464Z,99237.03
2022-07-28T18:08:45.025Z,99254.09
2022-07-28T18:10:50.850Z,99251.06
2022-07-28T18:12:54.090Z,99255.06
2022-07-28T18:14:56.756Z,99253.19
2022-07-28T18:16:59.597Z,99263.25
2022-07-28T18:19:03.601Z,99257.31
2022-07-28T18:21:06.318Z,99260.56
2022-07-28T18:23:10.221Z,99256.22
2022-07-28T18:25:12.849Z,99263.91
2022-07-28T18:27:16.666Z,99255.09
2022-07-28T18:29:21.041Z,99261.91
2022-07-28T18:31:24.636Z,99261.59
2022-07-28T18:33:27.451Z,99260.44
2022-07-28T18:35:31.269Z,99257.22
2022-07-28T18:37:33.886Z,99262.88
2022-07-28T18:39:36.613Z,99258.13
2022-07-28T18:41:46.385Z,99271.34
2022-07-28T18:43:50.948Z,99272.97
2022-07-28T18:45:53.561Z,99272.19
2022-07-28T18:47:58.936Z,99266.66
2022-07-28T18:50:01.697Z,99270.25
2022-07-28T18:52:06.996Z,99264.69
2022-07-28T18:54:09.956Z,99264.31
2022-07-28T18:56:13.009Z,99263.16
2022-07-28T18:58:15.590Z,99266.00
2022-07-28T19:00:18.284Z,99263.66
2022-07-28T19:02:21.308Z,99266.09
2022-07-28T19:04:28.918Z,99263.34
2022-07-28T19:06:31.672Z,99260.16
2022-07-28T19:08:34.250Z,99265.03
2022-07-28T19:10:37.025Z,99264.28
2022-07-28T19:12:39.743Z,99273.50
2022-07-28T19:14:42.318Z,99268.75
2022-07-28T19:16:44.983Z,99280.38
2022-07-28T19:18:47.677Z,99273.59
2022-07-28T19:20:50.288Z,99280.81
2022-07-28T19:22:52.999Z,99289.25
2022-07-28T20:13:25.477Z,99285.28
2022-07-28T20:15:28.615Z,99282.53
2022-07-28T20:17:38.581Z,99284.13
2022-07-28T20:19:42.095Z,99282.53
2022-07-28T20:21:44.749Z,99281.75
2022-07-28T20:23:47.483Z,99278.97
2022-07-28T20:25:50.142Z,99280.16
2022-07-28T20:27:52.858Z,99286.56
2022-07-28T20:29:55.423Z,99283.78
2022-07-28T20:31:58.132Z,99278.19
2022-07-28T20:34:00.774Z,99289.00
2022-07-28T20:36:03.495Z,99288.19
2022-07-28T20:38:08.348Z,99295.78
2022-07-28T20:40:11.512Z,99294.19
2022-07-28T20:42:14.904Z,99287.41
2022-07-28T20:44:28.907Z,99289.38
2022-07-28T20:46:32.278Z,99285.00
2022-07-28T20:48:35.222Z,99284.97
2022-07-28T20:50:37.775Z,99282.59
2022-07-28T20:52:40.873Z,99282.19
2022-07-28T20:54:43.459Z,99277.03
2022-07-28T20:56:46.115Z,99277.00
2022-07-28T20:58:48.821Z,99281.00
2022-07-28T21:00:51.508Z,99286.59
2022-07-28T21:02:54.298Z,99284.19
2022-07-28T21:04:56.998Z,99283.41
2022-07-28T21:07:01.645Z,99282.97
2022-07-28T21:09:06.793Z,99287.78
2022-07-28T21:11:09.341Z,99286.19
2022-07-28T21:13:12.049Z,99290.97
2022-07-28T21:15:14.633Z,99287.34
2022-07-28T21:17:17.189Z,99288.13
2022-07-28T21:19:20.135Z,99289.34
2022-07-28T21:21:22.795Z,99293.72
2022-07-28T21:23:25.326Z,99296.91
2022-07-28T21:25:30.842Z,99298.47
2022-07-28T21:27:53.598Z,99295.31
2022-07-28T21:31:58.525Z,99295.25
2022-07-28T21:34:08.265Z,99305.16
2022-07-28T21:36:10.813Z,99308.38
2022-07-28T21:38:13.401Z,99303.97
2022-07-28T21:40:16.125Z,99299.97
2022-07-28T21:42:20.945Z,99309.53
2022-07-28T21:44:23.632Z,99304.31
2022-07-28T21:46:27.230Z,99311.09
2022-07-28T21:48:31.028Z,99305.09
2022-07-28T21:50:33.705Z,99304.69
2022-07-28T21:52:37.814Z,99314.22
2022-07-28T21:54:40.355Z,99307.03
2022-07-28T21:56:43.040Z,99314.59
2022-07-28T21:58:49.392Z,99315.38
2022-07-28T22:00:52.075Z,99320.16
2022-07-28T22:02:54.736Z,99317.75
2022-07-28T22:04:57.348Z,99310.94
2022-07-28T22:06:59.977Z,99311.75
2022-07-28T22:09:02.739Z,99306.97
2022-07-28T22:11:06.651Z,99313.69
2022-07-28T22:13:09.248Z,99308.50
2022-07-28T22:15:12.396Z,99310.88
2022-07-28T22:17:15.052Z,99310.09
2022-07-28T22:19:17.612Z,99305.69
2022-07-28T22:21:20.213Z,99299.72
2022-07-28T22:23:28.993Z,99305.66
2022-07-28T22:25:32.552Z,99300.06
2022-07-28T22:27:35.208Z,99302.00
2022-07-28T22:29:38.005Z,99304.34
2022-07-28T22:31:40.735Z,99298.38
2022-07-28T22:33:43.336Z,99293.94
2022-07-28T22:35:46.739Z,99300.31
2022-07-28T22:37:49.697Z,99303.47
2022-07-28T22:39:52.358Z,99296.28
2022-07-28T22:41:54.920Z,99301.84
2022-07-28T22:43:57.486Z,99294.63
2022-07-28T22:46:00.298Z,99300.16
2022-07-28T22:48:02.944Z,99300.56
2022-07-28T22:50:07.673Z,99304.94
2022-07-28T22:52:10.231Z,99302.53
2022-07-28T22:54:13.647Z,99291.38
2022-07-28T22:56:17.411Z,99290.97
2022-07-28T22:58:20.108Z,99288.56
2022-07-28T23:00:22.993Z,99280.97
2022-07-28T23:02:26.826Z,99283.72
2022-07-28T23:04:29.571Z,99289.28
2022-07-28T23:06:34.904Z,99284.47
2022-07-28T23:08:37.484Z,99287.66
2022-07-28T23:10:40.163Z,99289.63
2022-07-28T23:12:42.719Z,99284.84
2022-07-28T23:14:45.281Z,99290.38
2022-07-28T23:16:47.984Z,99284.44
2022-07-28T23:18:50.656Z,99279.22
2022-07-28T23:20:53.215Z,99280.81
2022-07-28T23:22:56.183Z,99277.66
2022-07-28T23:24:58.798Z,99272.88
2022-07-28T23:27:01.350Z,99277.25
2022-07-28T23:29:04.298Z,99273.66
2022-07-28T23:31:07.131Z,99276.03
2022-07-28T23:33:09.727Z,99272.44
2022-07-28T23:35:32.330Z,99271.19
2022-07-28T23:37:35.034Z,99280.75
2022-07-28T23:39:38.495Z,99277.53
2022-07-28T23:41:41.165Z,99275.91
2022-07-28T23:43:43.778Z,99276.69
2022-07-28T23:45:46.365Z,99278.63
2022-07-28T23:47:48.963Z,99272.19
2022-07-28T23:49:51.674Z,99276.13
2022-07-28T23:51:54.246Z,99283.66
2022-07-28T23:53:56.777Z,99281.19
2022-07-28T23:55:59.479Z,99278.81
2022-07-28T23:58:02.214Z,99280.38
